createdAt,value
2019-01-11T00:00:27.824Z,4.97
2019-01-11T00:02:54.321Z,4.90
2019-01-11T00:05:20.889Z,4.50
2019-01-11T00:07:47.158Z,5.17
2019-01-11T00:10:13.623Z,4.87
2019-01-11T00:12:39.971Z,4.85
2019-01-11T00:15:06.448Z,4.85
2019-01-11T00:17:32.920Z,4.95
2019-01-11T00:20:03.480Z,4.78
2019-01-11T00:22:27.684Z,4.72
2019-01-11T00:24:55.975Z,4.78
2019-01-11T00:27:22.352Z,4.60
2019-01-11T00:29:48.625Z,4.65
2019-01-11T00:32:14.888Z,4.80
2019-01-11T00:34:41.311Z,4.15
2019-01-11T00:37:07.667Z,4.95
2019-01-11T00:39:33.978Z,4.03
2019-01-11T00:42:00.333Z,4.05
2019-01-11T00:44:26.585Z,5.20
2019-01-11T00:46:52.982Z,3.95
2019-01-11T00:49:19.632Z,4.75
2019-01-11T00:51:46.118Z,4.83
2019-01-11T00:54:12.506Z,4.15
2019-01-11T00:56:38.797Z,4.97
2019-01-11T00:59:05.262Z,5.17
2019-01-11T01:01:31.612Z,5.00
2019-01-11T01:03:57.895Z,4.70
2019-01-11T01:06:24.489Z,4.55
2019-01-11T01:08:50.949Z,5.25
2019-01-11T01:11:17.332Z,4.70
2019-01-11T01:13:43.632Z,4.55
2019-01-11T01:16:10.090Z,5.37
2019-01-11T01:18:36.458Z,5.03
2019-01-11T01:21:02.937Z,5.42
2019-01-11T01:23:29.396Z,4.85
2019-01-11T01:25:55.787Z,4.55
2019-01-11T01:28:22.180Z,4.65
2019-01-11T01:30:48.538Z,5.10
2019-01-11T01:33:15.042Z,4.85
2019-01-11T01:35:41.334Z,5.10
2019-01-11T01:38:07.803Z,6.03
2019-01-11T01:40:34.092Z,4.65
2019-01-11T01:43:00.993Z,5.40
2019-01-11T01:45:27.421Z,4.67
2019-01-11T01:47:53.899Z,5.35
2019-01-11T01:50:20.276Z,5.35
2019-01-11T01:52:46.676Z,4.83
2019-01-11T01:55:14.253Z,4.95
2019-01-11T01:57:40.753Z,5.08
2019-01-11T02:00:10.647Z,4.80
2019-01-11T02:02:36.912Z,5.35
2019-01-11T02:05:06.513Z,4.85
2019-01-11T02:07:32.891Z,5.62
2019-01-11T02:09:59.268Z,5.42
2019-01-11T02:12:25.771Z,4.65
2019-01-11T02:14:52.160Z,5.65
2019-01-11T02:17:18.557Z,5.15
2019-01-11T02:19:44.844Z,4.67
2019-01-11T02:22:11.191Z,4.80
2019-01-11T02:24:37.691Z,5.45
2019-01-11T02:27:11.939Z,4.83
2019-01-11T02:29:38.217Z,5.10
2019-01-11T02:32:04.609Z,5.28
2019-01-11T02:34:30.872Z,5.30
2019-01-11T02:36:57.131Z,5.40
2019-01-11T02:39:23.421Z,5.55
2019-01-11T02:41:49.793Z,5.67
2019-01-11T02:44:16.277Z,5.92
2019-01-11T02:46:42.565Z,6.08
2019-01-11T02:49:09.046Z,6.30
2019-01-11T02:51:35.330Z,5.85
2019-01-11T02:54:01.627Z,6.65
2019-01-11T02:56:28.000Z,6.45
2019-01-11T02:58:54.374Z,6.00
2019-01-11T03:01:20.828Z,6.70
2019-01-11T03:03:47.298Z,7.62
2019-01-11T03:06:13.792Z,7.25
2019-01-11T03:08:40.159Z,8.70
2019-01-11T03:11:06.649Z,8.03
2019-01-11T03:13:33.031Z,8.85
2019-01-11T03:15:59.286Z,7.97
2019-01-11T03:18:25.676Z,8.65
2019-01-11T03:20:51.957Z,8.98
2019-01-11T03:23:18.257Z,8.48
2019-01-11T03:25:44.635Z,8.60
2019-01-11T03:28:11.027Z,7.25
2019-01-11T03:30:37.320Z,8.43
2019-01-11T03:33:03.715Z,8.30
2019-01-11T03:35:29.976Z,9.08
2019-01-11T03:37:56.338Z,7.72
2019-01-11T03:40:23.615Z,8.80
2019-01-11T03:42:50.225Z,7.95
2019-01-11T03:45:18.953Z,7.80
2019-01-11T03:47:45.656Z,8.18
2019-01-11T03:50:14.833Z,7.97
2019-01-11T03:52:41.359Z,8.13
2019-01-11T03:55:10.174Z,7.60
2019-01-11T03:57:36.552Z,7.72
2019-01-11T04:00:06.612Z,7.30
2019-01-11T04:02:32.916Z,7.67
2019-01-11T04:04:59.516Z,8.15
2019-01-11T04:07:25.929Z,8.13
2019-01-11T04:09:52.213Z,7.87
2019-01-11T04:12:18.578Z,9.08
2019-01-11T04:14:45.098Z,8.88
2019-01-11T04:17:11.569Z,8.95
2019-01-11T04:19:38.029Z,8.25
2019-01-11T04:22:06.538Z,8.05
2019-01-11T04:24:34.795Z,8.35
2019-01-11T04:27:01.281Z,9.20
2019-01-11T04:29:27.586Z,9.30
2019-01-11T04:31:53.995Z,8.48
2019-01-11T04:34:20.400Z,8.33
2019-01-11T04:36:46.661Z,8.58
2019-01-11T04:39:13.006Z,7.97
2019-01-11T04:41:39.297Z,8.78
2019-01-11T04:44:05.553Z,8.75
2019-01-11T04:46:31.861Z,7.30
2019-01-11T04:48:58.118Z,8.30
2019-01-11T04:51:24.373Z,8.58
2019-01-11T04:53:50.773Z,7.85
2019-01-11T04:56:17.131Z,7.75
2019-01-11T04:58:43.406Z,9.13
2019-01-11T05:01:09.865Z,9.50
2019-01-11T05:03:36.133Z,9.55
2019-01-11T05:06:02.621Z,8.55
2019-01-11T05:08:28.907Z,8.95
2019-01-11T05:10:55.271Z,9.33
2019-01-11T05:13:23.454Z,8.68
2019-01-11T05:15:49.832Z,8.98
2019-01-11T05:18:16.201Z,8.95
2019-01-11T05:20:42.478Z,8.60
2019-01-11T05:23:08.734Z,8.38
2019-01-11T05:25:35.092Z,8.23
2019-01-11T05:28:01.451Z,9.33
2019-01-11T05:30:28.331Z,8.35
2019-01-11T05:32:54.745Z,8.70
2019-01-11T05:35:21.142Z,8.50
2019-01-11T05:37:47.409Z,8.55
2019-01-11T05:40:15.991Z,8.53
2019-01-11T05:42:42.884Z,7.83
2019-01-11T05:45:09.338Z,8.30
2019-01-11T05:47:35.721Z,9.10
2019-01-11T05:50:03.998Z,7.70
2019-01-11T05:52:30.306Z,8.80
2019-01-11T05:54:56.587Z,8.45
2019-01-11T05:57:22.941Z,8.85
2019-01-11T05:59:49.348Z,7.78
2019-01-11T06:02:15.835Z,9.90
2019-01-11T06:04:44.937Z,11.57
2019-01-11T06:07:15.852Z,7.83
2019-01-11T06:09:42.167Z,8.60
2019-01-11T06:12:08.744Z,9.18
2019-01-11T06:14:35.017Z,7.58
2019-01-11T06:17:01.431Z,8.68
2019-01-11T06:19:27.689Z,8.28
2019-01-11T06:21:54.093Z,8.93
2019-01-11T06:24:20.456Z,7.12
2019-01-11T06:26:46.712Z,7.33
2019-01-11T06:29:13.037Z,6.20
2019-01-11T06:31:39.429Z,5.45
2019-01-11T06:34:05.690Z,5.60
2019-01-11T06:36:31.973Z,6.08
2019-01-11T06:38:58.232Z,6.62
2019-01-11T06:41:26.568Z,5.65
2019-01-11T06:43:52.848Z,5.80
2019-01-11T06:46:21.012Z,5.45
2019-01-11T06:48:47.312Z,6.17
2019-01-11T06:51:13.569Z,5.35
2019-01-11T06:53:39.938Z,5.70
2019-01-11T06:56:06.546Z,6.00
2019-01-11T06:58:32.823Z,5.50
2019-01-11T07:00:59.219Z,6.35
2019-01-11T07:03:25.601Z,5.03
2019-01-11T07:05:51.949Z,6.15
2019-01-11T07:08:18.346Z,5.25
2019-01-11T07:10:44.657Z,5.35
2019-01-11T07:13:11.042Z,5.55
2019-01-11T07:15:37.645Z,5.83
2019-01-11T07:18:04.141Z,5.10
2019-01-11T07:20:30.528Z,5.17
2019-01-11T07:22:56.989Z,5.85
2019-01-11T07:25:23.377Z,5.12
2019-01-11T07:27:54.677Z,6.15
2019-01-11T07:30:23.022Z,5.92
2019-01-11T07:32:49.388Z,6.53
2019-01-11T07:35:15.801Z,5.60
2019-01-11T07:37:42.196Z,5.00
2019-01-11T07:40:10.486Z,5.30
2019-01-11T07:42:36.955Z,5.53
2019-01-11T07:45:06.950Z,5.37
2019-01-11T07:47:33.221Z,5.15
2019-01-11T07:49:59.720Z,5.15
2019-01-11T07:52:26.187Z,6.45
2019-01-11T07:54:52.559Z,6.42
2019-01-11T07:57:18.979Z,5.30
2019-01-11T07:59:47.238Z,5.30
2019-01-11T08:02:13.727Z,5.00
2019-01-11T08:04:40.004Z,5.30
2019-01-11T08:07:06.366Z,5.72
2019-01-11T08:09:32.627Z,5.15
2019-01-11T08:11:59.140Z,5.20
2019-01-11T08:14:25.611Z,5.80
2019-01-11T08:16:52.006Z,30.75
2019-01-11T08:19:18.366Z,8.70
2019-01-11T08:21:44.737Z,5.78
2019-01-11T08:24:11.132Z,5.53
2019-01-11T08:26:37.507Z,4.28
2019-01-11T08:29:04.680Z,4.55
2019-01-11T08:31:34.725Z,4.05
2019-01-11T08:33:59.341Z,4.47
2019-01-11T08:36:25.832Z,3.50
2019-01-11T08:38:52.092Z,3.75
2019-01-11T08:41:18.357Z,4.05
2019-01-11T08:43:44.647Z,4.62
2019-01-11T08:46:11.105Z,4.35
2019-01-11T08:48:37.469Z,4.10
2019-01-11T08:51:04.377Z,3.90
2019-01-11T08:53:30.726Z,4.87
2019-01-11T08:55:57.084Z,4.55
2019-01-11T08:58:23.436Z,4.45
2019-01-11T09:00:49.688Z,4.35
2019-01-11T09:03:15.975Z,4.92
2019-01-11T09:05:42.241Z,4.95
2019-01-11T09:08:08.634Z,4.25
2019-01-11T09:10:35.053Z,5.12
2019-01-11T09:13:01.241Z,4.33
2019-01-11T09:15:27.524Z,9.28
2019-01-11T09:18:12.622Z,8.45
2019-01-11T09:20:39.630Z,5.83
2019-01-11T09:23:06.016Z,9.68
2019-01-11T09:25:32.358Z,5.85
2019-01-11T09:27:58.744Z,5.42
2019-01-11T09:30:25.214Z,6.03
2019-01-11T09:32:51.505Z,5.87
2019-01-11T09:35:17.871Z,5.45
2019-01-11T09:37:44.248Z,5.87
2019-01-11T09:40:10.832Z,5.10
2019-01-11T09:42:37.184Z,5.90
2019-01-11T09:45:05.353Z,6.40
2019-01-11T09:47:31.637Z,6.28
2019-01-11T09:49:57.896Z,6.78
2019-01-11T09:52:24.169Z,8.15
2019-01-11T09:54:50.547Z,6.62
2019-01-11T09:57:16.910Z,7.80
2019-01-11T09:59:43.391Z,9.65
2019-01-11T10:02:14.525Z,6.95
2019-01-11T10:04:41.109Z,6.60
2019-01-11T10:07:12.025Z,6.17
2019-01-11T10:09:38.386Z,6.05
2019-01-11T10:12:04.773Z,9.45
2019-01-11T10:14:31.355Z,8.30
2019-01-11T10:16:57.625Z,7.78
2019-01-11T10:19:23.931Z,7.40
2019-01-11T10:21:50.390Z,8.50
2019-01-11T10:24:16.662Z,6.70
2019-01-11T10:26:42.944Z,7.25
2019-01-11T10:29:09.333Z,8.95
2019-01-11T10:31:35.629Z,17.82
2019-01-11T10:34:01.980Z,7.10
2019-01-11T10:36:28.385Z,7.97
2019-01-11T10:38:54.741Z,14.15
2019-01-11T10:41:21.031Z,8.00
2019-01-11T10:43:47.294Z,8.03
2019-01-11T10:46:18.219Z,7.58
2019-01-11T10:48:44.551Z,6.72
2019-01-11T10:51:10.904Z,6.85
2019-01-11T10:53:37.291Z,6.60
2019-01-11T10:56:03.791Z,6.50
2019-01-11T10:58:30.040Z,6.62
2019-01-11T11:00:56.300Z,7.10
2019-01-11T11:03:22.718Z,7.75
2019-01-11T11:05:49.189Z,7.33
2019-01-11T11:08:15.490Z,7.55
2019-01-11T11:10:42.154Z,7.20
2019-01-11T11:13:08.525Z,6.45
2019-01-11T11:15:35.010Z,5.37
2019-01-11T11:18:01.364Z,6.17
2019-01-11T11:20:27.961Z,6.70
2019-01-11T11:22:54.228Z,6.70
2019-01-11T11:25:20.800Z,5.65
2019-01-11T11:27:47.382Z,7.00
2019-01-11T11:30:15.658Z,7.55
2019-01-11T11:32:44.061Z,6.30
2019-01-11T11:35:10.575Z,6.35
2019-01-11T11:37:36.843Z,6.33
2019-01-11T11:40:05.908Z,6.45
2019-01-11T11:42:32.289Z,7.10
2019-01-11T11:44:58.576Z,6.72
2019-01-11T11:47:24.944Z,6.55
2019-01-11T11:49:51.340Z,6.87
2019-01-11T11:52:17.636Z,6.85
2019-01-11T11:54:43.903Z,7.37
2019-01-11T11:57:10.263Z,7.03
2019-01-11T11:59:36.548Z,7.60
2019-01-11T12:02:03.013Z,6.87
2019-01-11T12:04:29.274Z,7.40
2019-01-11T12:06:55.585Z,7.00
2019-01-11T12:09:21.828Z,7.40
2019-01-11T12:11:48.118Z,7.08
2019-01-11T12:14:14.500Z,7.87
2019-01-11T12:16:44.028Z,8.50
2019-01-11T12:19:10.561Z,8.60
2019-01-11T12:21:36.952Z,8.33
2019-01-11T12:24:03.442Z,10.00
2019-01-11T12:26:29.714Z,9.80
2019-01-11T12:28:56.203Z,9.25
2019-01-11T12:31:22.556Z,9.80
2019-01-11T12:33:48.849Z,10.35
2019-01-11T12:36:15.228Z,11.35
2019-01-11T12:38:44.710Z,9.03
2019-01-11T12:41:10.987Z,10.30
2019-01-11T12:43:37.243Z,11.00
2019-01-11T12:46:03.601Z,11.43
2019-01-11T12:48:30.973Z,10.72
2019-01-11T12:50:57.332Z,9.70
2019-01-11T12:53:23.723Z,11.10
2019-01-11T12:55:50.092Z,11.45
2019-01-11T12:58:18.038Z,12.07
2019-01-11T13:00:44.433Z,9.80
2019-01-11T13:03:10.685Z,11.00
2019-01-11T13:05:36.980Z,11.78
2019-01-11T13:08:03.368Z,12.70
2019-01-11T13:10:29.624Z,15.53
2019-01-11T13:12:55.920Z,13.98
2019-01-11T13:15:23.429Z,12.30
2019-01-11T13:17:55.555Z,13.50
2019-01-11T13:20:22.040Z,13.08
2019-01-11T13:22:48.608Z,13.85
2019-01-11T13:25:15.113Z,11.68
2019-01-11T13:27:41.899Z,12.00
2019-01-11T13:30:13.592Z,12.05
2019-01-11T13:32:40.001Z,13.83
2019-01-11T13:35:06.762Z,15.08
2019-01-11T13:37:33.132Z,14.68
2019-01-11T13:39:59.427Z,14.38
2019-01-11T13:42:25.789Z,13.13
2019-01-11T13:44:52.050Z,13.95
2019-01-11T13:47:18.429Z,13.85
2019-01-11T13:49:46.899Z,14.10
2019-01-11T13:52:13.173Z,13.38
2019-01-11T13:54:39.455Z,14.68
2019-01-11T13:57:05.736Z,14.87
2019-01-11T13:59:32.097Z,14.38
2019-01-11T14:01:58.587Z,12.47
2019-01-11T14:04:24.864Z,13.90
2019-01-11T14:06:51.122Z,15.18
2019-01-11T14:09:17.413Z,15.90
2019-01-11T14:11:43.692Z,15.68
2019-01-11T14:14:10.062Z,14.73
2019-01-11T14:16:36.347Z,14.70
2019-01-11T14:19:02.748Z,16.02
2019-01-11T14:21:29.198Z,15.53
2019-01-11T14:23:55.461Z,16.23
2019-01-11T14:26:21.761Z,15.58
2019-01-11T14:28:51.428Z,14.87
2019-01-11T14:31:17.845Z,16.50
2019-01-11T14:33:44.255Z,14.15
2019-01-11T14:36:10.721Z,16.05
2019-01-11T14:38:37.029Z,13.62
2019-01-11T14:41:03.507Z,14.68
2019-01-11T14:43:29.937Z,13.68
2019-01-11T14:45:56.220Z,15.32
2019-01-11T14:48:22.583Z,16.45
2019-01-11T14:50:48.881Z,16.97
2019-01-11T14:53:15.201Z,16.15
2019-01-11T14:55:41.481Z,15.38
2019-01-11T14:58:07.869Z,14.40
2019-01-11T15:00:34.520Z,17.20
2019-01-11T15:03:01.029Z,16.40
2019-01-11T15:05:27.401Z,15.32
2019-01-11T15:08:03.212Z,16.40
2019-01-11T15:10:35.554Z,14.90
2019-01-11T15:13:09.671Z,15.88
2019-01-11T15:15:36.034Z,14.55
2019-01-11T15:18:04.456Z,16.60
2019-01-11T15:20:30.733Z,17.07
2019-01-11T15:22:57.082Z,14.87
2019-01-11T15:25:23.361Z,16.20
2019-01-11T15:27:49.638Z,14.15
2019-01-11T15:30:17.293Z,14.95
2019-01-11T15:32:43.771Z,13.55
2019-01-11T15:35:10.251Z,18.42
2019-01-11T15:37:42.822Z,26.30
2019-01-11T15:40:15.503Z,18.27
2019-01-11T15:42:41.989Z,15.93
2019-01-11T15:45:08.509Z,14.43
2019-01-11T15:47:34.794Z,14.87
2019-01-11T15:50:01.263Z,13.50
2019-01-11T15:52:33.130Z,13.85
2019-01-11T15:54:55.821Z,12.05
2019-01-11T15:57:24.090Z,15.35
2019-01-11T16:00:00.942Z,14.90
2019-01-11T16:02:27.721Z,13.83
2019-01-11T16:04:58.970Z,15.68
2019-01-11T16:07:25.337Z,17.60
2019-01-11T16:09:54.904Z,15.08
2019-01-11T16:12:21.262Z,13.50
2019-01-11T16:14:57.101Z,14.70
2019-01-11T16:17:30.468Z,16.62
2019-01-11T16:19:56.918Z,15.63
2019-01-11T16:22:23.257Z,15.00
2019-01-11T16:24:49.830Z,14.40
2019-01-11T16:27:16.229Z,14.03
2019-01-11T16:29:42.555Z,12.37
2019-01-11T16:32:09.146Z,13.85
2019-01-11T16:34:35.432Z,13.70
2019-01-11T16:37:02.077Z,12.93
2019-01-11T16:39:28.484Z,13.98
2019-01-11T16:41:54.846Z,12.95
2019-01-11T16:44:21.305Z,10.93
2019-01-11T16:46:47.614Z,11.88
2019-01-11T16:49:13.987Z,12.60
2019-01-11T16:51:40.286Z,12.93
2019-01-11T16:54:06.691Z,13.62
2019-01-11T16:56:32.976Z,13.55
2019-01-11T16:58:59.345Z,14.38
2019-01-11T17:01:25.702Z,13.38
2019-01-11T17:03:52.588Z,13.55
2019-01-11T17:06:19.040Z,13.80
2019-01-11T17:08:45.617Z,13.78
2019-01-11T17:11:31.743Z,13.90
2019-01-11T17:13:58.014Z,17.42
2019-01-11T17:16:24.327Z,13.40
2019-01-11T17:18:50.925Z,14.80
2019-01-11T17:21:17.467Z,12.88
2019-01-11T17:23:43.747Z,25.43
2019-01-11T17:26:10.125Z,15.75
2019-01-11T17:28:36.401Z,22.10
2019-01-11T17:31:02.911Z,18.67
2019-01-11T17:33:29.174Z,16.00
2019-01-11T17:35:55.475Z,13.28
2019-01-11T17:38:22.758Z,16.50
2019-01-11T17:40:49.310Z,14.43
2019-01-11T17:43:15.604Z,13.28
2019-01-11T17:45:41.875Z,13.35
2019-01-11T17:48:08.224Z,13.88
2019-01-11T17:50:34.749Z,14.87
2019-01-11T17:53:01.137Z,15.58
2019-01-11T17:55:27.712Z,16.77
2019-01-11T17:57:54.289Z,17.48
2019-01-11T18:00:20.643Z,16.55
2019-01-11T18:02:46.880Z,12.85
2019-01-11T18:05:13.598Z,12.43
2019-01-11T18:07:40.080Z,18.85
2019-01-11T18:10:08.252Z,14.63
2019-01-11T18:12:34.762Z,14.25
2019-01-11T18:15:01.437Z,14.70
2019-01-11T18:17:28.183Z,13.60
2019-01-11T18:19:54.619Z,12.70
2019-01-11T18:22:21.093Z,12.80
2019-01-11T18:24:47.321Z,12.80
2019-01-11T18:27:13.861Z,13.35
2019-01-11T18:29:40.105Z,11.93
2019-01-11T18:32:06.506Z,10.75
2019-01-11T18:34:32.787Z,13.60
2019-01-11T18:36:59.196Z,15.20
2019-01-11T18:39:25.585Z,18.70
2019-01-11T18:41:51.872Z,17.37
2019-01-11T18:44:18.153Z,10.63
2019-01-11T18:46:44.497Z,11.20
2019-01-11T18:49:10.767Z,12.53
2019-01-11T18:51:37.281Z,12.90
2019-01-11T18:54:04.797Z,10.50
2019-01-11T18:56:31.074Z,11.85
2019-01-11T18:58:57.581Z,9.95
2019-01-11T19:01:24.059Z,10.13
2019-01-11T19:03:50.541Z,11.75
2019-01-11T19:06:16.981Z,11.15
2019-01-11T19:08:43.463Z,14.25
2019-01-11T19:11:09.725Z,12.85
2019-01-11T19:13:36.011Z,13.43
2019-01-11T19:16:02.501Z,12.95
2019-01-11T19:18:28.752Z,11.35
2019-01-11T19:20:55.027Z,10.25
2019-01-11T19:23:21.347Z,10.45
2019-01-11T19:25:47.696Z,12.50
2019-01-11T19:28:14.195Z,12.37
2019-01-11T19:30:40.675Z,13.15
2019-01-11T19:33:07.076Z,11.97
2019-01-11T19:35:33.523Z,12.18
2019-01-11T19:38:00.076Z,13.40
2019-01-11T19:40:26.563Z,12.50
2019-01-11T19:42:53.030Z,12.55
2019-01-11T19:45:19.587Z,13.43
2019-01-11T19:47:46.065Z,12.10
2019-01-11T19:50:18.144Z,12.60
2019-01-11T19:52:44.600Z,10.60
2019-01-11T19:55:11.076Z,9.65
2019-01-11T19:57:37.536Z,11.38
2019-01-11T20:00:24.653Z,12.23
2019-01-11T20:02:51.552Z,11.35
2019-01-11T20:05:18.288Z,13.20
2019-01-11T20:07:44.747Z,12.07
2019-01-11T20:10:23.334Z,10.85
2019-01-11T20:12:49.799Z,11.57
2019-01-11T20:15:16.302Z,11.60
2019-01-11T20:17:42.695Z,11.63
2019-01-11T20:20:13.236Z,12.18
2019-01-11T20:22:39.702Z,11.35
2019-01-11T20:25:14.626Z,11.08
2019-01-11T20:27:41.097Z,10.35
2019-01-11T20:30:11.074Z,11.25
2019-01-11T20:32:37.464Z,10.10
2019-01-11T20:35:05.430Z,11.78
2019-01-11T20:37:32.212Z,14.35
2019-01-11T20:39:58.614Z,12.30
2019-01-11T20:42:25.120Z,11.45
2019-01-11T20:44:51.656Z,12.45
2019-01-11T20:47:17.959Z,12.65
2019-01-11T20:49:44.365Z,14.40
2019-01-11T20:52:10.851Z,14.38
2019-01-11T20:54:37.236Z,14.83
2019-01-11T20:57:03.605Z,11.83
2019-01-11T20:59:29.915Z,12.70
2019-01-11T21:01:56.322Z,11.22
2019-01-11T21:04:22.639Z,14.53
2019-01-11T21:06:48.993Z,12.05
2019-01-11T21:09:15.289Z,10.85
2019-01-11T21:11:41.652Z,13.38
2019-01-11T21:14:08.011Z,12.60
2019-01-11T21:16:34.349Z,12.55
2019-01-11T21:19:00.605Z,13.65
2019-01-11T21:21:26.986Z,12.50
2019-01-11T21:23:53.268Z,11.53
2019-01-11T21:26:19.782Z,12.45
2019-01-11T21:28:46.164Z,12.70
2019-01-11T21:31:12.412Z,11.35
2019-01-11T21:33:38.762Z,12.28
2019-01-11T21:36:05.161Z,12.25
2019-01-11T21:38:31.564Z,12.10
2019-01-11T21:40:57.946Z,13.32
2019-01-11T21:43:24.312Z,12.47
2019-01-11T21:45:50.604Z,12.80
2019-01-11T21:48:17.083Z,12.78
2019-01-11T21:50:43.487Z,13.98
2019-01-11T21:53:09.855Z,12.65
2019-01-11T21:55:36.220Z,12.07
2019-01-11T21:58:03.108Z,14.20
2019-01-11T22:00:32.664Z,16.95
2019-01-11T22:02:59.149Z,15.65
2019-01-11T22:05:25.633Z,15.75
2019-01-11T22:07:52.008Z,11.75
2019-01-11T22:10:18.495Z,13.28
2019-01-11T22:12:44.810Z,13.62
2019-01-11T22:15:14.305Z,13.88
2019-01-11T22:17:40.656Z,13.35
2019-01-11T22:20:10.462Z,12.47
2019-01-11T22:22:36.730Z,14.05
2019-01-11T22:25:05.400Z,14.93
2019-01-11T22:27:31.885Z,13.10
2019-01-11T22:29:58.390Z,15.18
2019-01-11T22:32:24.800Z,14.03
2019-01-11T22:34:51.209Z,13.38
2019-01-11T22:37:17.652Z,15.35
2019-01-11T22:39:43.909Z,14.63
2019-01-11T22:42:10.317Z,12.60
2019-01-11T22:44:36.762Z,14.05
2019-01-11T22:47:03.206Z,13.18
2019-01-11T22:49:29.474Z,14.38
2019-01-11T22:51:55.845Z,15.20
2019-01-11T22:54:22.232Z,16.15
2019-01-11T22:56:48.514Z,14.35
2019-01-11T22:59:14.933Z,15.78
2019-01-11T23:01:50.748Z,16.30
2019-01-11T23:04:17.255Z,14.83
2019-01-11T23:06:50.240Z,14.10
2019-01-11T23:09:16.501Z,14.50
2019-01-11T23:12:13.878Z,12.88
2019-01-11T23:14:40.257Z,12.60
2019-01-11T23:17:10.394Z,13.15
2019-01-11T23:19:36.880Z,12.07
2019-01-11T23:22:03.371Z,12.10
2019-01-11T23:24:29.774Z,13.72
2019-01-11T23:26:56.031Z,12.68
2019-01-11T23:29:22.428Z,12.85
2019-01-11T23:31:48.740Z,13.55
2019-01-11T23:34:14.992Z,13.70
2019-01-11T23:36:41.381Z,15.20
2019-01-11T23:39:07.861Z,14.50
2019-01-11T23:41:34.255Z,13.43
2019-01-11T23:44:00.641Z,13.40
2019-01-11T23:46:27.128Z,14.73
2019-01-11T23:48:53.432Z,14.15
2019-01-11T23:51:19.801Z,16.07
2019-01-11T23:53:46.273Z,14.75
2019-01-11T23:56:12.731Z,16.37
2019-01-11T23:58:58.898Z,16.12
